sensor_id;sensor_type;location;lat;lon;timestamp;P1;durP1;ratioP1;P2;durP2;ratioP2
60054;SDS011;45930;53.514;55.904;2023-04-01T00:00:45;12.57;;;7.18;;
60054;SDS011;45930;53.514;55.904;2023-04-01T00:01:46;15.13;;;8.98;;
60054;SDS011;45930;53.514;55.904;2023-04-01T00:02:47;12.52;;;7.90;;
60054;SDS011;45930;53.514;55.904;2023-04-01T00:03:47;11.35;;;7.32;;
60054;SDS011;45930;53.514;55.904;2023-04-01T00:04:48;9.95;;;7.55;;
60054;SDS011;45930;53.514;55.904;2023-04-01T00:05:49;11.95;;;7.40;;
60054;SDS011;45930;53.514;55.904;2023-04-01T00:06:50;15.95;;;8.40;;
60054;SDS011;45930;53.514;55.904;2023-04-01T00:07:51;13.60;;;7.15;;
60054;SDS011;45930;53.514;55.904;2023-04-01T00:08:52;12.45;;;7.57;;
60054;SDS011;45930;53.514;55.904;2023-04-01T00:09:53;13.30;;;7.93;;
60054;SDS011;45930;53.514;55.904;2023-04-01T00:10:54;13.05;;;7.88;;
60054;SDS011;45930;53.514;55.904;2023-04-01T00:11:55;12.85;;;6.90;;
60054;SDS011;45930;53.514;55.904;2023-04-01T00:12:56;11.25;;;6.95;;
60054;SDS011;45930;53.514;55.904;2023-04-01T00:13:57;15.73;;;7.63;;
60054;SDS011;45930;53.514;55.904;2023-04-01T00:14:57;10.82;;;6.47;;
60054;SDS011;45930;53.514;55.904;2023-04-01T00:15:58;12.27;;;6.85;;
60054;SDS011;45930;53.514;55.904;2023-04-01T00:16:59;9.20;;;6.78;;
60054;SDS011;45930;53.514;55.904;2023-04-01T00:18:01;13.70;;;6.90;;
60054;SDS011;45930;53.514;55.904;2023-04-01T00:19:02;13.88;;;7.70;;
60054;SDS011;45930;53.514;55.904;2023-04-01T00:20:03;14.80;;;8.55;;
60054;SDS011;45930;53.514;55.904;2023-04-01T00:21:05;12.15;;;7.10;;
60054;SDS011;45930;53.514;55.904;2023-04-01T00:22:07;12.70;;;7.00;;
60054;SDS011;45930;53.514;55.904;2023-04-01T00:23:12;11.63;;;7.22;;
60054;SDS011;45930;53.514;55.904;2023-04-01T00:24:13;13.20;;;7.13;;
60054;SDS011;45930;53.514;55.904;2023-04-01T00:25:14;11.90;;;6.88;;
60054;SDS011;45930;53.514;55.904;2023-04-01T00:26:15;11.27;;;6.72;;
60054;SDS011;45930;53.514;55.904;2023-04-01T00:27:19;10.38;;;7.40;;
60054;SDS011;45930;53.514;55.904;2023-04-01T00:28:20;12.20;;;7.30;;
60054;SDS011;45930;53.514;55.904;2023-04-01T00:29:21;14.05;;;7.07;;
60054;SDS011;45930;53.514;55.904;2023-04-01T00:30:24;12.35;;;8.65;;
60054;SDS011;45930;53.514;55.904;2023-04-01T00:31:25;11.48;;;6.80;;
60054;SDS011;45930;53.514;55.904;2023-04-01T00:32:26;13.50;;;7.40;;
60054;SDS011;45930;53.514;55.904;2023-04-01T00:33:27;11.43;;;7.18;;
60054;SDS011;45930;53.514;55.904;2023-04-01T00:34:28;14.45;;;7.88;;
60054;SDS011;45930;53.514;55.904;2023-04-01T00:35:29;10.32;;;7.18;;
60054;SDS011;45930;53.514;55.904;2023-04-01T00:36:30;10.93;;;7.10;;
60054;SDS011;45930;53.514;55.904;2023-04-01T00:37:30;15.88;;;7.90;;
60054;SDS011;45930;53.514;55.904;2023-04-01T00:38:31;10.68;;;7.38;;
60054;SDS011;45930;53.514;55.904;2023-04-01T00:39:32;12.15;;;7.50;;
60054;SDS011;45930;53.514;55.904;2023-04-01T00:40:38;13.93;;;7.60;;
60054;SDS011;45930;53.514;55.904;2023-04-01T00:41:41;12.10;;;7.47;;
60054;SDS011;45930;53.514;55.904;2023-04-01T00:42:42;12.90;;;7.35;;
60054;SDS011;45930;53.514;55.904;2023-04-01T00:43:43;13.75;;;6.97;;
60054;SDS011;45930;53.514;55.904;2023-04-01T00:44:50;13.00;;;6.82;;
60054;SDS011;45930;53.514;55.904;2023-04-01T00:45:52;10.93;;;7.32;;
60054;SDS011;45930;53.514;55.904;2023-04-01T00:46:53;11.43;;;7.78;;
60054;SDS011;45930;53.514;55.904;2023-04-01T00:47:54;13.80;;;7.60;;
60054;SDS011;45930;53.514;55.904;2023-04-01T00:48:55;11.57;;;6.97;;
60054;SDS011;45930;53.514;55.904;2023-04-01T00:49:56;15.18;;;7.47;;
60054;SDS011;45930;53.514;55.904;2023-04-01T00:51:01;11.85;;;7.30;;
60054;SDS011;45930;53.514;55.904;2023-04-01T00:52:08;11.60;;;7.32;;
60054;SDS011;45930;53.514;55.904;2023-04-01T00:53:13;9.90;;;6.75;;
60054;SDS011;45930;53.514;55.904;2023-04-01T00:54:15;11.57;;;7.20;;
60054;SDS011;45930;53.514;55.904;2023-04-01T00:55:18;12.82;;;7.65;;
60054;SDS011;45930;53.514;55.904;2023-04-01T00:56:22;11.65;;;7.47;;
60054;SDS011;45930;53.514;55.904;2023-04-01T00:57:31;13.48;;;7.20;;
60054;SDS011;45930;53.514;55.904;2023-04-01T00:58:37;13.77;;;7.35;;
60054;SDS011;45930;53.514;55.904;2023-04-01T00:59:45;12.15;;;7.88;;
60054;SDS011;45930;53.514;55.904;2023-04-01T01:00:48;14.80;;;8.35;;
60054;SDS011;45930;53.514;55.904;2023-04-01T01:01:50;14.13;;;7.35;;
60054;SDS011;45930;53.514;55.904;2023-04-01T01:02:52;11.57;;;6.75;;
60054;SDS011;45930;53.514;55.904;2023-04-01T01:03:53;13.82;;;7.20;;
60054;SDS011;45930;53.514;55.904;2023-04-01T01:04:53;11.48;;;7.28;;
60054;SDS011;45930;53.514;55.904;2023-04-01T01:05:58;11.10;;;7.15;;
60054;SDS011;45930;53.514;55.904;2023-04-01T01:08:27;11.20;;;7.60;;
60054;SDS011;45930;53.514;55.904;2023-04-01T01:11:10;13.02;;;7.47;;
60054;SDS011;45930;53.514;55.904;2023-04-01T01:12:19;10.68;;;7.38;;
60054;SDS011;45930;53.514;55.904;2023-04-01T01:15:47;12.27;;;7.32;;
60054;SDS011;45930;53.514;55.904;2023-04-01T01:16:58;14.48;;;7.82;;
60054;SDS011;45930;53.514;55.904;2023-04-01T01:20:53;14.73;;;7.15;;
60054;SDS011;45930;53.514;55.904;2023-04-01T01:22:02;12.55;;;8.68;;
60054;SDS011;45930;53.514;55.904;2023-04-01T01:25:12;12.43;;;8.63;;
60054;SDS011;45930;53.514;55.904;2023-04-01T01:27:57;11.45;;;8.05;;
60054;SDS011;45930;53.514;55.904;2023-04-01T01:29:25;11.45;;;7.80;;
60054;SDS011;45930;53.514;55.904;2023-04-01T01:35:50;13.52;;;8.38;;
60054;SDS011;45930;53.514;55.904;2023-04-01T01:36:55;12.95;;;9.27;;
60054;SDS011;45930;53.514;55.904;2023-04-01T01:38:02;13.90;;;9.32;;
60054;SDS011;45930;53.514;55.904;2023-04-01T01:39:07;14.35;;;8.95;;
60054;SDS011;45930;53.514;55.904;2023-04-01T01:40:10;15.95;;;9.50;;
60054;SDS011;45930;53.514;55.904;2023-04-01T01:41:13;14.43;;;9.00;;
60054;SDS011;45930;53.514;55.904;2023-04-01T01:42:16;15.25;;;9.70;;
60054;SDS011;45930;53.514;55.904;2023-04-01T01:43:21;15.52;;;10.10;;
60054;SDS011;45930;53.514;55.904;2023-04-01T01:44:25;15.80;;;10.40;;
60054;SDS011;45930;53.514;55.904;2023-04-01T01:45:29;16.10;;;10.02;;
60054;SDS011;45930;53.514;55.904;2023-04-01T01:46:33;14.10;;;9.95;;
60054;SDS011;45930;53.514;55.904;2023-04-01T01:47:34;17.33;;;11.40;;
60054;SDS011;45930;53.514;55.904;2023-04-01T01:48:37;17.25;;;10.68;;
60054;SDS011;45930;53.514;55.904;2023-04-01T01:49:38;15.65;;;9.73;;
60054;SDS011;45930;53.514;55.904;2023-04-01T01:50:43;16.00;;;10.48;;
60054;SDS011;45930;53.514;55.904;2023-04-01T01:51:45;12.32;;;9.70;;
60054;SDS011;45930;53.514;55.904;2023-04-01T01:52:46;17.63;;;10.95;;
60054;SDS011;45930;53.514;55.904;2023-04-01T01:53:47;17.48;;;11.05;;
60054;SDS011;45930;53.514;55.904;2023-04-01T01:54:51;15.10;;;10.63;;
60054;SDS011;45930;53.514;55.904;2023-04-01T01:55:53;17.92;;;10.18;;
60054;SDS011;45930;53.514;55.904;2023-04-01T01:57:06;18.13;;;11.63;;
60054;SDS011;45930;53.514;55.904;2023-04-01T01:58:13;16.30;;;10.95;;
60054;SDS011;45930;53.514;55.904;2023-04-01T01:59:20;15.00;;;10.73;;
60054;SDS011;45930;53.514;55.904;2023-04-01T02:00:22;17.48;;;11.55;;
60054;SDS011;45930;53.514;55.904;2023-04-01T02:01:24;15.85;;;11.45;;
60054;SDS011;45930;53.514;55.904;2023-04-01T02:02:28;19.40;;;11.73;;
60054;SDS011;45930;53.514;55.904;2023-04-01T02:03:33;17.17;;;11.40;;
60054;SDS011;45930;53.514;55.904;2023-04-01T02:04:37;19.40;;;11.93;;
60054;SDS011;45930;53.514;55.904;2023-04-01T02:05:40;15.40;;;11.32;;
60054;SDS011;45930;53.514;55.904;2023-04-01T02:06:46;18.75;;;12.68;;
60054;SDS011;45930;53.514;55.904;2023-04-01T02:08:05;17.58;;;12.13;;
60054;SDS011;45930;53.514;55.904;2023-04-01T02:09:10;16.52;;;11.27;;
60054;SDS011;45930;53.514;55.904;2023-04-01T02:10:12;18.90;;;11.23;;
60054;SDS011;45930;53.514;55.904;2023-04-01T02:11:13;18.40;;;11.73;;
60054;SDS011;45930;53.514;55.904;2023-04-01T02:12:20;18.80;;;12.60;;
60054;SDS011;45930;53.514;55.904;2023-04-01T02:13:28;16.67;;;10.65;;
60054;SDS011;45930;53.514;55.904;2023-04-01T02:14:49;16.27;;;11.00;;
60054;SDS011;45930;53.514;55.904;2023-04-01T02:15:59;14.88;;;11.45;;
60054;SDS011;45930;53.514;55.904;2023-04-01T02:17:09;15.98;;;11.20;;
60054;SDS011;45930;53.514;55.904;2023-04-01T02:18:14;19.30;;;11.82;;
60054;SDS011;45930;53.514;55.904;2023-04-01T02:19:17;19.05;;;12.15;;
60054;SDS011;45930;53.514;55.904;2023-04-01T02:20:23;15.65;;;11.55;;
60054;SDS011;45930;53.514;55.904;2023-04-01T02:21:26;15.40;;;11.60;;
60054;SDS011;45930;53.514;55.904;2023-04-01T02:22:34;20.83;;;11.60;;
60054;SDS011;45930;53.514;55.904;2023-04-01T02:23:37;15.07;;;10.40;;
60054;SDS011;45930;53.514;55.904;2023-04-01T02:24:38;15.25;;;9.50;;
60054;SDS011;45930;53.514;55.904;2023-04-01T02:25:41;17.27;;;11.32;;
60054;SDS011;45930;53.514;55.904;2023-04-01T02:26:45;13.35;;;9.27;;
60054;SDS011;45930;53.514;55.904;2023-04-01T02:27:46;15.02;;;9.38;;
60054;SDS011;45930;53.514;55.904;2023-04-01T02:28:47;11.95;;;8.93;;
60054;SDS011;45930;53.514;55.904;2023-04-01T02:29:50;14.85;;;9.95;;
60054;SDS011;45930;53.514;55.904;2023-04-01T02:30:51;14.57;;;9.80;;
60054;SDS011;45930;53.514;55.904;2023-04-01T02:31:52;14.55;;;10.25;;
60054;SDS011;45930;53.514;55.904;2023-04-01T02:32:55;15.73;;;10.40;;
60054;SDS011;45930;53.514;55.904;2023-04-01T02:33:58;16.20;;;9.98;;
60054;SDS011;45930;53.514;55.904;2023-04-01T02:34:59;17.40;;;10.20;;
60054;SDS011;45930;53.514;55.904;2023-04-01T02:36:04;17.98;;;10.18;;
60054;SDS011;45930;53.514;55.904;2023-04-01T02:37:06;17.33;;;9.98;;
60054;SDS011;45930;53.514;55.904;2023-04-01T02:38:07;18.25;;;10.35;;
60054;SDS011;45930;53.514;55.904;2023-04-01T02:39:08;16.50;;;10.60;;
60054;SDS011;45930;53.514;55.904;2023-04-01T02:40:11;17.77;;;10.68;;
60054;SDS011;45930;53.514;55.904;2023-04-01T02:41:13;15.82;;;9.85;;
60054;SDS011;45930;53.514;55.904;2023-04-01T02:42:14;13.73;;;9.70;;
60054;SDS011;45930;53.514;55.904;2023-04-01T02:43:15;13.95;;;9.43;;
60054;SDS011;45930;53.514;55.904;2023-04-01T02:44:16;13.05;;;8.73;;
60054;SDS011;45930;53.514;55.904;2023-04-01T02:45:17;16.15;;;10.07;;
60054;SDS011;45930;53.514;55.904;2023-04-01T02:46:18;14.02;;;9.30;;
60054;SDS011;45930;53.514;55.904;2023-04-01T02:47:19;15.70;;;9.55;;
60054;SDS011;45930;53.514;55.904;2023-04-01T02:48:20;13.88;;;9.27;;
60054;SDS011;45930;53.514;55.904;2023-04-01T02:49:20;14.65;;;8.98;;
60054;SDS011;45930;53.514;55.904;2023-04-01T02:50:21;13.43;;;8.45;;
60054;SDS011;45930;53.514;55.904;2023-04-01T02:51:22;16.80;;;9.32;;
60054;SDS011;45930;53.514;55.904;2023-04-01T02:52:23;14.88;;;8.10;;
60054;SDS011;45930;53.514;55.904;2023-04-01T02:53:25;11.98;;;8.60;;
60054;SDS011;45930;53.514;55.904;2023-04-01T02:54:25;15.70;;;8.32;;
60054;SDS011;45930;53.514;55.904;2023-04-01T02:55:26;13.98;;;8.35;;
60054;SDS011;45930;53.514;55.904;2023-04-01T02:56:27;14.50;;;8.65;;
60054;SDS011;45930;53.514;55.904;2023-04-01T02:57:28;14.07;;;9.93;;
60054;SDS011;45930;53.514;55.904;2023-04-01T02:58:29;16.48;;;9.20;;
60054;SDS011;45930;53.514;55.904;2023-04-01T02:59:30;15.82;;;9.55;;
60054;SDS011;45930;53.514;55.904;2023-04-01T03:00:31;13.52;;;8.25;;
60054;SDS011;45930;53.514;55.904;2023-04-01T03:01:31;14.25;;;8.88;;
60054;SDS011;45930;53.514;55.904;2023-04-01T03:02:32;13.65;;;8.80;;
60054;SDS011;45930;53.514;55.904;2023-04-01T03:03:33;14.27;;;8.45;;
60054;SDS011;45930;53.514;55.904;2023-04-01T03:04:34;16.48;;;9.63;;
60054;SDS011;45930;53.514;55.904;2023-04-01T03:05:35;15.68;;;8.52;;
60054;SDS011;45930;53.514;55.904;2023-04-01T03:06:35;14.00;;;8.98;;
60054;SDS011;45930;53.514;55.904;2023-04-01T03:07:39;14.10;;;9.95;;
60054;SDS011;45930;53.514;55.904;2023-04-01T03:08:40;16.20;;;8.77;;
60054;SDS011;45930;53.514;55.904;2023-04-01T03:09:41;19.35;;;9.57;;
60054;SDS011;45930;53.514;55.904;2023-04-01T03:10:41;15.27;;;9.02;;
60054;SDS011;45930;53.514;55.904;2023-04-01T03:11:42;15.80;;;9.30;;
60054;SDS011;45930;53.514;55.904;2023-04-01T03:12:43;18.63;;;9.43;;
60054;SDS011;45930;53.514;55.904;2023-04-01T03:13:43;15.77;;;8.82;;
60054;SDS011;45930;53.514;55.904;2023-04-01T03:14:44;13.07;;;8.70;;
60054;SDS011;45930;53.514;55.904;2023-04-01T03:15:45;18.67;;;10.20;;
60054;SDS011;45930;53.514;55.904;2023-04-01T03:16:46;15.70;;;9.52;;
60054;SDS011;45930;53.514;55.904;2023-04-01T03:17:47;18.35;;;9.90;;
60054;SDS011;45930;53.514;55.904;2023-04-01T03:18:47;19.02;;;10.05;;
60054;SDS011;45930;53.514;55.904;2023-04-01T03:19:50;15.77;;;9.85;;
60054;SDS011;45930;53.514;55.904;2023-04-01T03:20:51;16.58;;;9.40;;
60054;SDS011;45930;53.514;55.904;2023-04-01T03:21:52;16.42;;;8.73;;
60054;SDS011;45930;53.514;55.904;2023-04-01T03:22:53;14.18;;;9.60;;
60054;SDS011;45930;53.514;55.904;2023-04-01T03:23:54;15.10;;;9.52;;
60054;SDS011;45930;53.514;55.904;2023-04-01T03:24:55;14.50;;;8.65;;
60054;SDS011;45930;53.514;55.904;2023-04-01T03:25:55;16.48;;;9.93;;
60054;SDS011;45930;53.514;55.904;2023-04-01T03:26:56;14.00;;;8.95;;
60054;SDS011;45930;53.514;55.904;2023-04-01T03:27:57;12.13;;;8.80;;
60054;SDS011;45930;53.514;55.904;2023-04-01T03:28:59;14.35;;;8.30;;
60054;SDS011;45930;53.514;55.904;2023-04-01T03:30:01;13.93;;;9.05;;
60054;SDS011;45930;53.514;55.904;2023-04-01T03:31:04;14.93;;;9.32;;
60054;SDS011;45930;53.514;55.904;2023-04-01T03:32:05;11.45;;;8.02;;
60054;SDS011;45930;53.514;55.904;2023-04-01T03:33:06;12.00;;;7.75;;
60054;SDS011;45930;53.514;55.904;2023-04-01T03:34:07;15.25;;;8.93;;
60054;SDS011;45930;53.514;55.904;2023-04-01T03:35:08;13.45;;;8.32;;
60054;SDS011;45930;53.514;55.904;2023-04-01T03:36:10;13.68;;;8.00;;
60054;SDS011;45930;53.514;55.904;2023-04-01T03:37:13;13.43;;;8.20;;
60054;SDS011;45930;53.514;55.904;2023-04-01T03:38:14;17.63;;;9.02;;
60054;SDS011;45930;53.514;55.904;2023-04-01T03:39:15;16.20;;;8.65;;
60054;SDS011;45930;53.514;55.904;2023-04-01T03:40:18;15.30;;;9.60;;
60054;SDS011;45930;53.514;55.904;2023-04-01T03:41:20;13.75;;;8.75;;
60054;SDS011;45930;53.514;55.904;2023-04-01T03:42:21;14.20;;;8.50;;
60054;SDS011;45930;53.514;55.904;2023-04-01T03:43:21;11.25;;;7.95;;
60054;SDS011;45930;53.514;55.904;2023-04-01T03:44:22;12.10;;;8.30;;
60054;SDS011;45930;53.514;55.904;2023-04-01T03:45:23;13.55;;;8.15;;
60054;SDS011;45930;53.514;55.904;2023-04-01T03:46:24;11.10;;;8.13;;
60054;SDS011;45930;53.514;55.904;2023-04-01T03:47:25;12.70;;;8.18;;
60054;SDS011;45930;53.514;55.904;2023-04-01T03:48:25;15.65;;;10.90;;
60054;SDS011;45930;53.514;55.904;2023-04-01T03:49:26;16.95;;;9.07;;
60054;SDS011;45930;53.514;55.904;2023-04-01T03:50:27;13.07;;;7.88;;
60054;SDS011;45930;53.514;55.904;2023-04-01T03:51:28;13.38;;;8.38;;
60054;SDS011;45930;53.514;55.904;2023-04-01T03:52:29;11.98;;;8.00;;
60054;SDS011;45930;53.514;55.904;2023-04-01T03:53:30;11.48;;;8.65;;
60054;SDS011;45930;53.514;55.904;2023-04-01T03:54:31;12.73;;;8.77;;
60054;SDS011;45930;53.514;55.904;2023-04-01T03:55:32;12.60;;;7.63;;
60054;SDS011;45930;53.514;55.904;2023-04-01T03:56:33;13.57;;;8.25;;
60054;SDS011;45930;53.514;55.904;2023-04-01T03:57:34;12.90;;;8.57;;
60054;SDS011;45930;53.514;55.904;2023-04-01T03:58:34;13.65;;;8.55;;
60054;SDS011;45930;53.514;55.904;2023-04-01T03:59:35;14.55;;;9.00;;
60054;SDS011;45930;53.514;55.904;2023-04-01T04:00:36;13.52;;;8.55;;
60054;SDS011;45930;53.514;55.904;2023-04-01T04:01:37;13.43;;;9.10;;
60054;SDS011;45930;53.514;55.904;2023-04-01T04:02:38;14.18;;;8.75;;
60054;SDS011;45930;53.514;55.904;2023-04-01T04:03:39;13.13;;;8.75;;
60054;SDS011;45930;53.514;55.904;2023-04-01T04:04:40;14.63;;;9.13;;
60054;SDS011;45930;53.514;55.904;2023-04-01T04:05:47;14.25;;;8.73;;
60054;SDS011;45930;53.514;55.904;2023-04-01T04:06:49;12.60;;;7.95;;
60054;SDS011;45930;53.514;55.904;2023-04-01T04:07:51;11.55;;;8.18;;
60054;SDS011;45930;53.514;55.904;2023-04-01T04:08:53;11.80;;;8.80;;
60054;SDS011;45930;53.514;55.904;2023-04-01T04:09:53;14.00;;;8.80;;
60054;SDS011;45930;53.514;55.904;2023-04-01T04:10:55;13.00;;;8.02;;
60054;SDS011;45930;53.514;55.904;2023-04-01T04:11:56;13.73;;;8.32;;
60054;SDS011;45930;53.514;55.904;2023-04-01T04:12:57;15.60;;;9.95;;
60054;SDS011;45930;53.514;55.904;2023-04-01T04:13:58;17.95;;;10.30;;
60054;SDS011;45930;53.514;55.904;2023-04-01T04:14:59;17.13;;;10.68;;
60054;SDS011;45930;53.514;55.904;2023-04-01T04:16:00;13.88;;;9.07;;
60054;SDS011;45930;53.514;55.904;2023-04-01T04:17:02;15.48;;;9.23;;
60054;SDS011;45930;53.514;55.904;2023-04-01T04:18:03;12.13;;;8.68;;
60054;SDS011;45930;53.514;55.904;2023-04-01T04:19:04;12.70;;;9.48;;
60054;SDS011;45930;53.514;55.904;2023-04-01T04:20:05;12.82;;;8.85;;
60054;SDS011;45930;53.514;55.904;2023-04-01T04:21:06;11.45;;;8.25;;
60054;SDS011;45930;53.514;55.904;2023-04-01T04:22:06;13.27;;;8.90;;
60054;SDS011;45930;53.514;55.904;2023-04-01T04:23:07;13.05;;;8.48;;
60054;SDS011;45930;53.514;55.904;2023-04-01T04:24:08;12.75;;;8.07;;
60054;SDS011;45930;53.514;55.904;2023-04-01T04:25:10;12.60;;;8.98;;
60054;SDS011;45930;53.514;55.904;2023-04-01T04:26:12;12.63;;;8.52;;
60054;SDS011;45930;53.514;55.904;2023-04-01T04:27:13;11.68;;;7.57;;
60054;SDS011;45930;53.514;55.904;2023-04-01T04:28:14;14.15;;;7.80;;
60054;SDS011;45930;53.514;55.904;2023-04-01T04:29:15;13.57;;;8.07;;
60054;SDS011;45930;53.514;55.904;2023-04-01T04:30:16;11.73;;;7.72;;
60054;SDS011;45930;53.514;55.904;2023-04-01T04:31:20;12.35;;;8.43;;
60054;SDS011;45930;53.514;55.904;2023-04-01T04:32:22;11.45;;;8.10;;
60054;SDS011;45930;53.514;55.904;2023-04-01T04:33:23;15.48;;;8.48;;
60054;SDS011;45930;53.514;55.904;2023-04-01T04:34:24;15.73;;;8.73;;
60054;SDS011;45930;53.514;55.904;2023-04-01T04:35:25;11.88;;;8.02;;
60054;SDS011;45930;53.514;55.904;2023-04-01T04:36:26;18.75;;;8.70;;
60054;SDS011;45930;53.514;55.904;2023-04-01T04:37:27;11.82;;;7.97;;
60054;SDS011;45930;53.514;55.904;2023-04-01T04:38:28;10.65;;;7.30;;
60054;SDS011;45930;53.514;55.904;2023-04-01T04:39:29;13.85;;;8.65;;
60054;SDS011;45930;53.514;55.904;2023-04-01T04:40:30;11.88;;;7.90;;
60054;SDS011;45930;53.514;55.904;2023-04-01T04:41:31;12.18;;;7.60;;
60054;SDS011;45930;53.514;55.904;2023-04-01T04:42:32;10.63;;;8.18;;
60054;SDS011;45930;53.514;55.904;2023-04-01T04:43:33;14.60;;;8.20;;
60054;SDS011;45930;53.514;55.904;2023-04-01T04:44:33;14.18;;;9.10;;
60054;SDS011;45930;53.514;55.904;2023-04-01T04:45:34;13.68;;;8.55;;
60054;SDS011;45930;53.514;55.904;2023-04-01T04:46:35;12.75;;;8.18;;
60054;SDS011;45930;53.514;55.904;2023-04-01T04:47:37;12.90;;;8.13;;
60054;SDS011;45930;53.514;55.904;2023-04-01T04:48:38;13.63;;;8.40;;
60054;SDS011;45930;53.514;55.904;2023-04-01T04:49:38;15.68;;;8.25;;
60054;SDS011;45930;53.514;55.904;2023-04-01T04:50:40;10.68;;;7.88;;
60054;SDS011;45930;53.514;55.904;2023-04-01T04:51:40;14.48;;;8.85;;
60054;SDS011;45930;53.514;55.904;2023-04-01T04:52:41;12.27;;;8.30;;
60054;SDS011;45930;53.514;55.904;2023-04-01T04:53:42;10.20;;;7.32;;
60054;SDS011;45930;53.514;55.904;2023-04-01T04:54:43;11.55;;;8.38;;
60054;SDS011;45930;53.514;55.904;2023-04-01T04:55:45;13.70;;;8.27;;
60054;SDS011;45930;53.514;55.904;2023-04-01T04:56:47;12.10;;;8.05;;
60054;SDS011;45930;53.514;55.904;2023-04-01T04:57:48;15.18;;;8.52;;
60054;SDS011;45930;53.514;55.904;2023-04-01T04:58:49;14.80;;;9.50;;
60054;SDS011;45930;53.514;55.904;2023-04-01T04:59:50;12.98;;;9.05;;
60054;SDS011;45930;53.514;55.904;2023-04-01T05:00:51;15.57;;;9.23;;
60054;SDS011;45930;53.514;55.904;2023-04-01T05:01:52;15.30;;;10.07;;
60054;SDS011;45930;53.514;55.904;2023-04-01T05:02:52;11.85;;;8.10;;
60054;SDS011;45930;53.514;55.904;2023-04-01T05:03:53;15.75;;;9.30;;
60054;SDS011;45930;53.514;55.904;2023-04-01T05:04:54;15.25;;;9.55;;
60054;SDS011;45930;53.514;55.904;2023-04-01T05:05:55;15.27;;;10.07;;
60054;SDS011;45930;53.514;55.904;2023-04-01T05:06:56;11.90;;;9.38;;
60054;SDS011;45930;53.514;55.904;2023-04-01T05:07:57;15.75;;;9.50;;
60054;SDS011;45930;53.514;55.904;2023-04-01T05:08:57;14.35;;;10.40;;
60054;SDS011;45930;53.514;55.904;2023-04-01T05:09:58;13.85;;;10.05;;
60054;SDS011;45930;53.514;55.904;2023-04-01T05:11:00;14.10;;;10.05;;
60054;SDS011;45930;53.514;55.904;2023-04-01T05:12:01;16.17;;;10.18;;
60054;SDS011;45930;53.514;55.904;2023-04-01T05:13:03;17.95;;;10.18;;
60054;SDS011;45930;53.514;55.904;2023-04-01T05:14:05;16.83;;;10.38;;
60054;SDS011;45930;53.514;55.904;2023-04-01T05:15:06;14.68;;;9.38;;
60054;SDS011;45930;53.514;55.904;2023-04-01T05:16:18;15.90;;;9.90;;
60054;SDS011;45930;53.514;55.904;2023-04-01T05:17:20;17.27;;;10.88;;
60054;SDS011;45930;53.514;55.904;2023-04-01T05:18:21;15.43;;;11.23;;
60054;SDS011;45930;53.514;55.904;2023-04-01T05:19:22;15.32;;;11.02;;
60054;SDS011;45930;53.514;55.904;2023-04-01T05:20:23;17.15;;;11.48;;
60054;SDS011;45930;53.514;55.904;2023-04-01T05:21:23;15.07;;;11.30;;
60054;SDS011;45930;53.514;55.904;2023-04-01T05:22:24;15.65;;;10.90;;
60054;SDS011;45930;53.514;55.904;2023-04-01T05:23:25;17.17;;;10.57;;
60054;SDS011;45930;53.514;55.904;2023-04-01T05:24:26;15.98;;;11.20;;
60054;SDS011;45930;53.514;55.904;2023-04-01T05:25:27;20.65;;;14.73;;
60054;SDS011;45930;53.514;55.904;2023-04-01T05:26:27;18.42;;;12.02;;
60054;SDS011;45930;53.514;55.904;2023-04-01T05:27:28;16.33;;;10.90;;
60054;SDS011;45930;53.514;55.904;2023-04-01T05:28:29;18.50;;;10.95;;
60054;SDS011;45930;53.514;55.904;2023-04-01T05:29:30;14.18;;;11.05;;
60054;SDS011;45930;53.514;55.904;2023-04-01T05:30:31;17.48;;;12.70;;
60054;SDS011;45930;53.514;55.904;2023-04-01T05:31:31;16.55;;;11.32;;
60054;SDS011;45930;53.514;55.904;2023-04-01T05:32:32;14.75;;;11.18;;
60054;SDS011;45930;53.514;55.904;2023-04-01T05:33:36;15.35;;;11.35;;
60054;SDS011;45930;53.514;55.904;2023-04-01T05:34:37;18.67;;;11.90;;
60054;SDS011;45930;53.514;55.904;2023-04-01T05:35:38;16.83;;;12.05;;
60054;SDS011;45930;53.514;55.904;2023-04-01T05:36:40;20.52;;;12.07;;
60054;SDS011;45930;53.514;55.904;2023-04-01T05:37:41;14.98;;;10.82;;
60054;SDS011;45930;53.514;55.904;2023-04-01T05:38:43;15.30;;;11.13;;
60054;SDS011;45930;53.514;55.904;2023-04-01T05:39:45;17.30;;;10.52;;
60054;SDS011;45930;53.514;55.904;2023-04-01T05:40:46;14.65;;;9.60;;
60054;SDS011;45930;53.514;55.904;2023-04-01T05:41:47;12.07;;;8.85;;
60054;SDS011;45930;53.514;55.904;2023-04-01T05:42:48;13.25;;;8.50;;
60054;SDS011;45930;53.514;55.904;2023-04-01T05:43:49;14.25;;;9.82;;
60054;SDS011;45930;53.514;55.904;2023-04-01T05:44:50;14.60;;;8.73;;
60054;SDS011;45930;53.514;55.904;2023-04-01T05:45:50;12.27;;;8.05;;
60054;SDS011;45930;53.514;55.904;2023-04-01T05:46:51;14.68;;;8.52;;
60054;SDS011;45930;53.514;55.904;2023-04-01T05:47:52;10.25;;;7.50;;
60054;SDS011;45930;53.514;55.904;2023-04-01T05:48:53;12.40;;;7.85;;
60054;SDS011;45930;53.514;55.904;2023-04-01T05:49:53;11.65;;;6.63;;
60054;SDS011;45930;53.514;55.904;2023-04-01T05:50:55;12.95;;;7.88;;
60054;SDS011;45930;53.514;55.904;2023-04-01T05:51:56;11.50;;;7.50;;
60054;SDS011;45930;53.514;55.904;2023-04-01T05:52:57;12.13;;;7.95;;
60054;SDS011;45930;53.514;55.904;2023-04-01T05:53:58;10.23;;;7.10;;
60054;SDS011;45930;53.514;55.904;2023-04-01T05:54:58;12.25;;;7.35;;
60054;SDS011;45930;53.514;55.904;2023-04-01T05:56:03;12.93;;;8.27;;
60054;SDS011;45930;53.514;55.904;2023-04-01T05:57:04;9.43;;;7.00;;
60054;SDS011;45930;53.514;55.904;2023-04-01T05:58:05;11.15;;;7.13;;
60054;SDS011;45930;53.514;55.904;2023-04-01T05:59:05;9.75;;;7.05;;
60054;SDS011;45930;53.514;55.904;2023-04-01T06:00:06;10.98;;;7.38;;
60054;SDS011;45930;53.514;55.904;2023-04-01T06:01:09;14.25;;;7.13;;
60054;SDS011;45930;53.514;55.904;2023-04-01T06:02:17;11.88;;;8.75;;
60054;SDS011;45930;53.514;55.904;2023-04-01T06:03:18;12.93;;;7.82;;
60054;SDS011;45930;53.514;55.904;2023-04-01T06:04:19;21.88;;;9.02;;
60054;SDS011;45930;53.514;55.904;2023-04-01T06:05:21;14.50;;;8.40;;
60054;SDS011;45930;53.514;55.904;2023-04-01T06:06:28;12.60;;;8.00;;
60054;SDS011;45930;53.514;55.904;2023-04-01T06:07:31;14.65;;;6.55;;
60054;SDS011;45930;53.514;55.904;2023-04-01T06:08:32;12.98;;;8.18;;
60054;SDS011;45930;53.514;55.904;2023-04-01T06:09:33;14.65;;;10.02;;
60054;SDS011;45930;53.514;55.904;2023-04-01T06:11:18;14.75;;;8.23;;
60054;SDS011;45930;53.514;55.904;2023-04-01T06:13:12;13.35;;;7.50;;
60054;SDS011;45930;53.514;55.904;2023-04-01T06:19:42;10.38;;;6.65;;
60054;SDS011;45930;53.514;55.904;2023-04-01T06:22:31;13.70;;;6.20;;
60054;SDS011;45930;53.514;55.904;2023-04-01T06:31:40;14.23;;;8.98;;
60054;SDS011;45930;53.514;55.904;2023-04-01T06:34:27;11.40;;;7.47;;
60054;SDS011;45930;53.514;55.904;2023-04-01T06:37:59;10.73;;;7.25;;
60054;SDS011;45930;53.514;55.904;2023-04-01T06:46:52;12.00;;;7.75;;
60054;SDS011;45930;53.514;55.904;2023-04-01T06:50:12;10.43;;;6.55;;
60054;SDS011;45930;53.514;55.904;2023-04-01T06:53:38;11.18;;;6.85;;